createdAt,value
2017-02-20T00:04:23.144Z,0
2017-02-20T00:09:19.470Z,0
2017-02-20T00:14:16.184Z,0
2017-02-20T00:19:12.779Z,0
2017-02-20T00:24:09.338Z,0
2017-02-20T00:29:06.862Z,0
2017-02-20T00:34:02.702Z,0
2017-02-20T00:38:59.131Z,0
2017-02-20T00:43:55.530Z,0
2017-02-20T00:48:52.004Z,0
2017-02-20T00:53:48.802Z,0
2017-02-20T00:58:45.105Z,0
2017-02-20T01:03:41.729Z,0
2017-02-20T01:08:38.274Z,0
2017-02-20T01:13:35.296Z,0
2017-02-20T01:18:32.017Z,0
2017-02-20T01:23:28.118Z,0
2017-02-20T01:28:24.403Z,0
2017-02-20T01:33:20.869Z,0
2017-02-20T01:38:17.255Z,0
2017-02-20T01:43:14.126Z,0
2017-02-20T01:48:10.988Z,0
2017-02-20T01:53:07.718Z,0
2017-02-20T01:58:03.905Z,0
2017-02-20T02:03:00.551Z,0
2017-02-20T02:07:56.954Z,0
2017-02-20T02:12:52.864Z,0
2017-02-20T02:17:49.388Z,0
2017-02-20T02:22:45.555Z,0
2017-02-20T02:27:42.057Z,0
2017-02-20T02:32:38.349Z,0
2017-02-20T02:37:35.168Z,0
2017-02-20T02:42:32.199Z,0
2017-02-20T02:47:28.545Z,0
2017-02-20T02:52:24.865Z,0
2017-02-20T02:57:21.833Z,0
2017-02-20T03:02:18.336Z,0
2017-02-20T03:07:14.623Z,0
2017-02-20T03:12:11.369Z,0
2017-02-20T03:17:07.688Z,0
2017-02-20T03:22:04.181Z,0
2017-02-20T03:27:01.105Z,0
2017-02-20T03:31:57.543Z,0
2017-02-20T03:36:53.861Z,0
2017-02-20T03:41:50.014Z,0
2017-02-20T03:46:47.229Z,0
2017-02-20T03:51:43.542Z,0
2017-02-20T03:56:40.241Z,0
2017-02-20T04:01:36.670Z,0
2017-02-20T04:06:33.201Z,0
2017-02-20T04:11:29.436Z,0
2017-02-20T04:16:25.750Z,0
2017-02-20T04:21:22.158Z,0
2017-02-20T04:26:18.603Z,0
2017-02-20T04:31:14.883Z,0
2017-02-20T04:36:11.392Z,0
2017-02-20T04:41:07.817Z,0
2017-02-20T04:46:03.800Z,0
2017-02-20T04:51:00.197Z,0
2017-02-20T04:55:57.038Z,0
2017-02-20T05:00:53.479Z,0
2017-02-20T05:05:50.728Z,0
2017-02-20T05:10:47.076Z,0
2017-02-20T05:15:43.255Z,0
2017-02-20T05:20:39.716Z,0
2017-02-20T05:25:36.044Z,0
2017-02-20T05:30:32.494Z,0
2017-02-20T05:35:28.884Z,0
2017-02-20T05:40:26.460Z,0
2017-02-20T05:45:22.576Z,0
2017-02-20T05:50:19.063Z,0
2017-02-20T05:55:15.517Z,0
2017-02-20T06:00:11.860Z,0
2017-02-20T06:05:08.330Z,0
2017-02-20T06:10:04.688Z,0
2017-02-20T06:15:01.276Z,0
2017-02-20T06:19:57.473Z,8
2017-02-20T06:24:54.178Z,12
2017-02-20T06:29:50.467Z,24
2017-02-20T06:34:47.039Z,32
2017-02-20T06:39:43.644Z,60
2017-02-20T06:44:40.152Z,84
2017-02-20T06:49:36.506Z,128
2017-02-20T06:54:32.846Z,232
2017-02-20T06:59:29.336Z,236
2017-02-20T07:04:25.819Z,344
2017-02-20T07:09:22.587Z,332
2017-02-20T07:14:19.291Z,520
2017-02-20T07:19:15.926Z,492
2017-02-20T07:24:12.452Z,604
2017-02-20T07:29:09.128Z,600
2017-02-20T07:34:05.635Z,636
2017-02-20T07:39:01.726Z,716
2017-02-20T07:43:58.369Z,872
2017-02-20T07:53:54.958Z,972
2017-02-20T07:58:51.322Z,992
2017-02-20T08:03:47.786Z,964
2017-02-20T08:08:44.492Z,944
2017-02-20T08:13:40.841Z,1080
2017-02-20T08:18:37.380Z,980
2017-02-20T08:23:33.860Z,1168
2017-02-20T08:28:29.914Z,1140
2017-02-20T08:33:27.312Z,1284
2017-02-20T08:38:23.818Z,1228
2017-02-20T08:43:20.063Z,1100
2017-02-20T08:48:16.547Z,1036
2017-02-20T08:53:13.382Z,992
2017-02-20T08:58:09.352Z,1248
2017-02-20T09:03:06.118Z,1160
2017-02-20T09:08:03.130Z,1356
2017-02-20T09:13:00.021Z,1356
2017-02-20T09:17:56.598Z,1236
2017-02-20T09:22:52.963Z,1276
2017-02-20T09:27:49.604Z,1632
2017-02-20T09:32:46.230Z,1828
2017-02-20T09:37:42.535Z,2232
2017-02-20T09:42:39.471Z,1948
2017-02-20T09:47:36.703Z,2072
2017-02-20T09:52:33.220Z,1528
2017-02-20T09:57:29.769Z,1560
2017-02-20T10:02:26.342Z,2312
2017-02-20T10:07:22.392Z,2244
2017-02-20T10:12:19.065Z,2064
2017-02-20T10:17:15.048Z,2036
2017-02-20T10:22:12.028Z,2716
2017-02-20T10:27:08.646Z,2384
2017-02-20T10:32:05.346Z,2400
2017-02-20T10:37:01.745Z,2152
2017-02-20T10:41:58.204Z,1884
2017-02-20T10:46:54.706Z,4104
2017-02-20T10:51:51.300Z,2472
2017-02-20T10:56:49.102Z,1880
2017-02-20T11:01:45.234Z,2080
2017-02-20T11:06:41.392Z,2716
2017-02-20T11:11:38.021Z,3052
2017-02-20T11:16:34.954Z,3136
2017-02-20T11:21:31.583Z,2452
2017-02-20T11:26:28.085Z,2540
2017-02-20T11:31:24.426Z,3024
2017-02-20T11:36:21.212Z,2768
2017-02-20T11:41:17.713Z,2520
2017-02-20T11:46:14.356Z,3168
2017-02-20T11:51:10.959Z,2392
2017-02-20T11:56:07.695Z,2948
2017-02-20T12:01:04.071Z,3452
2017-02-20T12:06:00.619Z,2964
2017-02-20T12:10:57.148Z,4216
2017-02-20T12:15:53.676Z,3576
2017-02-20T12:20:50.317Z,3740
2017-02-20T12:25:46.751Z,4780
2017-02-20T12:30:43.349Z,3352
2017-02-20T12:35:39.854Z,2724
2017-02-20T12:40:36.116Z,2396
2017-02-20T12:45:32.522Z,2592
2017-02-20T12:50:30.514Z,2784
2017-02-20T12:55:26.662Z,3152
2017-02-20T13:00:23.233Z,3232
2017-02-20T13:05:20.532Z,3480
2017-02-20T13:10:18.311Z,3108
2017-02-20T13:15:14.524Z,2420
2017-02-20T13:20:10.872Z,2652
2017-02-20T13:25:07.315Z,2676
2017-02-20T13:30:03.521Z,2128
2017-02-20T13:34:59.875Z,2512
2017-02-20T13:39:56.430Z,3148
2017-02-20T13:44:54.290Z,2376
2017-02-20T13:49:50.571Z,2288
2017-02-20T13:54:47.312Z,1836
2017-02-20T13:59:43.842Z,1936
2017-02-20T14:04:40.409Z,2072
2017-02-20T14:09:36.753Z,2076
2017-02-20T14:14:33.330Z,2092
2017-02-20T14:19:29.945Z,2120
2017-02-20T14:24:26.771Z,2148
2017-02-20T14:29:23.285Z,1896
2017-02-20T14:34:19.811Z,1624
2017-02-20T14:39:16.261Z,1732
2017-02-20T14:44:13.184Z,1796
2017-02-20T14:49:09.746Z,1572
2017-02-20T14:54:06.657Z,1512
2017-02-20T14:59:03.173Z,1332
2017-02-20T15:03:59.641Z,1100
2017-02-20T15:08:56.257Z,1232
2017-02-20T15:13:52.641Z,1088
2017-02-20T15:18:48.706Z,1032
2017-02-20T15:23:44.956Z,1148
2017-02-20T15:28:42.324Z,932
2017-02-20T15:33:38.518Z,740
2017-02-20T15:38:34.921Z,872
2017-02-20T15:43:31.742Z,1008
2017-02-20T15:48:28.942Z,660
2017-02-20T15:53:25.376Z,512
2017-02-20T15:58:21.723Z,404
2017-02-20T16:03:18.163Z,316
2017-02-20T16:08:14.751Z,332
2017-02-20T16:13:11.181Z,280
2017-02-20T16:18:07.693Z,172
2017-02-20T16:23:03.885Z,124
2017-02-20T16:28:00.380Z,100
2017-02-20T16:32:56.719Z,84
2017-02-20T16:37:53.519Z,64
2017-02-20T16:42:50.179Z,36
2017-02-20T16:47:46.771Z,28
2017-02-20T16:52:42.900Z,24
2017-02-20T16:57:39.358Z,12
2017-02-20T17:02:36.073Z,8
2017-02-20T17:07:32.899Z,0
2017-02-20T17:12:29.349Z,0
2017-02-20T17:17:25.678Z,0
2017-02-20T17:22:22.097Z,0
2017-02-20T17:27:18.626Z,0
2017-02-20T17:32:15.330Z,0
2017-02-20T17:37:11.905Z,0
2017-02-20T17:42:08.197Z,0
2017-02-20T17:47:04.778Z,0
2017-02-20T17:52:01.499Z,0
2017-02-20T17:56:57.740Z,0
2017-02-20T18:01:54.402Z,0
2017-02-20T18:06:50.998Z,0
2017-02-20T18:11:47.318Z,0
2017-02-20T18:16:44.024Z,0
2017-02-20T18:21:40.605Z,0
2017-02-20T18:26:37.920Z,0
2017-02-20T18:31:35.191Z,0
2017-02-20T18:36:32.542Z,0
2017-02-20T18:41:28.983Z,0
2017-02-20T18:46:25.445Z,0
2017-02-20T18:51:21.880Z,0
2017-02-20T18:56:17.937Z,0
2017-02-20T19:01:14.412Z,0
2017-02-20T19:06:10.697Z,0
2017-02-20T19:11:07.564Z,0
2017-02-20T19:16:04.003Z,0
2017-02-20T19:21:00.511Z,0
2017-02-20T19:25:57.282Z,0
2017-02-20T19:30:53.577Z,0
2017-02-20T19:35:51.022Z,0
2017-02-20T19:40:48.284Z,0
2017-02-20T19:45:44.620Z,0
2017-02-20T19:50:41.234Z,0
2017-02-20T19:55:37.778Z,0
2017-02-20T20:00:34.197Z,0
2017-02-20T20:05:30.657Z,0
2017-02-20T20:10:27.080Z,0
2017-02-20T20:15:23.666Z,0
2017-02-20T20:20:20.145Z,0
2017-02-20T20:25:16.585Z,0
2017-02-20T20:30:14.226Z,0
2017-02-20T20:35:10.574Z,0
2017-02-20T20:40:07.386Z,0
2017-02-20T20:45:04.012Z,0
2017-02-20T20:50:01.885Z,0
2017-02-20T20:54:58.357Z,0
2017-02-20T20:59:55.122Z,0
2017-02-20T21:04:51.707Z,0
2017-02-20T21:09:48.363Z,0
2017-02-20T21:14:44.911Z,0
2017-02-20T21:19:41.647Z,0
2017-02-20T21:24:38.504Z,0
2017-02-20T21:29:35.022Z,0
2017-02-20T21:34:31.804Z,0
2017-02-20T21:39:28.539Z,0
2017-02-20T21:44:24.803Z,0
2017-02-20T21:49:22.264Z,0
2017-02-20T21:54:18.744Z,0
2017-02-20T21:59:15.433Z,0
2017-02-20T22:04:12.184Z,0
2017-02-20T22:09:09.123Z,0
2017-02-20T22:14:05.246Z,0
2017-02-20T22:19:02.678Z,0
2017-02-20T22:23:58.806Z,0
2017-02-20T22:28:56.104Z,0
2017-02-20T22:33:52.876Z,0
2017-02-20T22:38:49.427Z,0
2017-02-20T22:43:45.878Z,0
2017-02-20T22:48:42.290Z,0
2017-02-20T22:53:38.848Z,0
2017-02-20T22:58:35.589Z,0
2017-02-20T23:03:32.029Z,0
2017-02-20T23:08:28.549Z,0
2017-02-20T23:13:25.039Z,0
2017-02-20T23:18:21.635Z,0
2017-02-20T23:23:18.206Z,0
2017-02-20T23:28:14.567Z,0
2017-02-20T23:33:10.910Z,0
2017-02-20T23:38:08.667Z,0
2017-02-20T23:43:04.893Z,0
2017-02-20T23:48:01.886Z,0
2017-02-20T23:52:58.811Z,0
2017-02-20T23:57:55.375Z,0
